sensor_id;sensor_type;location;lat;lon;timestamp;pressure;altitude;pressure_sealevel;temperature;humidity
71735;BME280;59577;52.122;5.406;2023-04-27T00:02:00;102217.25;;;2.67;81.20
71735;BME280;59577;52.122;5.406;2023-04-27T00:04:27;102226.06;;;2.67;81.16
71735;BME280;59577;52.122;5.406;2023-04-27T00:06:54;102235.41;;;2.64;81.35
71735;BME280;59577;52.122;5.406;2023-04-27T00:09:21;102234.59;;;2.59;80.96
71735;BME280;59577;52.122;5.406;2023-04-27T00:11:47;102233.75;;;2.48;80.83
71735;BME280;59577;52.122;5.406;2023-04-27T00:14:14;102235.06;;;2.40;80.87
71735;BME280;59577;52.122;5.406;2023-04-27T00:16:40;102237.44;;;2.37;81.01
71735;BME280;59577;52.122;5.406;2023-04-27T00:19:07;102231.00;;;2.28;81.46
71735;BME280;59577;52.122;5.406;2023-04-27T00:21:34;102232.34;;;2.25;81.54
71735;BME280;59577;52.122;5.406;2023-04-27T00:24:01;102237.63;;;2.15;81.50
71735;BME280;59577;52.122;5.406;2023-04-27T00:26:27;102236.25;;;2.07;81.51
71735;BME280;59577;52.122;5.406;2023-04-27T00:28:54;102234.91;;;2.04;81.76
71735;BME280;59577;52.122;5.406;2023-04-27T00:31:20;102228.75;;;2.04;82.10
71735;BME280;59577;52.122;5.406;2023-04-27T00:33:47;102230.09;;;2.01;81.85
71735;BME280;59577;52.122;5.406;2023-04-27T00:36:13;102228.47;;;2.00;82.09
71735;BME280;59577;52.122;5.406;2023-04-27T00:38:40;102230.59;;;1.98;82.03
71735;BME280;59577;52.122;5.406;2023-04-27T00:41:07;102222.03;;;1.96;82.29
71735;BME280;59577;52.122;5.406;2023-04-27T00:43:44;102219.38;;;1.96;82.30
71735;BME280;59577;52.122;5.406;2023-04-27T00:46:15;102227.91;;;1.93;82.12
71735;BME280;59577;52.122;5.406;2023-04-27T00:48:43;102230.03;;;1.91;82.03
71735;BME280;59577;52.122;5.406;2023-04-27T00:51:10;102228.94;;;1.87;82.39
71735;BME280;59577;52.122;5.406;2023-04-27T00:53:37;102229.44;;;1.84;82.37
71735;BME280;59577;52.122;5.406;2023-04-27T00:56:05;102239.88;;;1.85;82.34
71735;BME280;59577;52.122;5.406;2023-04-27T00:58:32;102223.03;;;1.85;82.43
71735;BME280;59577;52.122;5.406;2023-04-27T01:00:59;102234.50;;;1.80;81.95
71735;BME280;59577;52.122;5.406;2023-04-27T01:03:26;102229.16;;;1.80;82.07
71735;BME280;59577;52.122;5.406;2023-04-27T01:05:53;102225.69;;;1.85;82.29
71735;BME280;59577;52.122;5.406;2023-04-27T01:08:21;102221.44;;;1.84;82.21
71735;BME280;59577;52.122;5.406;2023-04-27T01:10:48;102213.41;;;1.79;82.50
71735;BME280;59577;52.122;5.406;2023-04-27T01:13:15;102213.91;;;1.76;82.63
71735;BME280;59577;52.122;5.406;2023-04-27T01:15:41;102211.25;;;1.76;82.64
71735;BME280;59577;52.122;5.406;2023-04-27T01:18:08;102210.72;;;1.79;82.74
71735;BME280;59577;52.122;5.406;2023-04-27T01:20:35;102218.19;;;1.77;82.92
71735;BME280;59577;52.122;5.406;2023-04-27T01:23:01;102220.63;;;1.78;82.78
71735;BME280;59577;52.122;5.406;2023-04-27T01:25:28;102213.66;;;1.77;82.77
71735;BME280;59577;52.122;5.406;2023-04-27T01:27:55;102218.72;;;1.74;83.04
71735;BME280;59577;52.122;5.406;2023-04-27T01:30:21;102226.72;;;1.74;82.74
71735;BME280;59577;52.122;5.406;2023-04-27T01:32:48;102235.50;;;1.74;83.03
71735;BME280;59577;52.122;5.406;2023-04-27T01:35:15;102231.72;;;1.65;82.72
71735;BME280;59577;52.122;5.406;2023-04-27T01:37:42;102230.91;;;1.59;83.01
71735;BME280;59577;52.122;5.406;2023-04-27T01:40:09;102221.28;;;1.58;83.00
71735;BME280;59577;52.122;5.406;2023-04-27T01:42:35;102221.53;;;1.57;83.01
71735;BME280;59577;52.122;5.406;2023-04-27T01:45:02;102218.56;;;1.53;83.14
71735;BME280;59577;52.122;5.406;2023-04-27T01:47:29;102216.41;;;1.50;83.46
71735;BME280;59577;52.122;5.406;2023-04-27T01:49:56;102208.09;;;1.46;83.49
71735;BME280;59577;52.122;5.406;2023-04-27T01:52:22;102206.78;;;1.44;83.66
71735;BME280;59577;52.122;5.406;2023-04-27T01:54:49;102201.69;;;1.42;83.92
71735;BME280;59577;52.122;5.406;2023-04-27T01:57:15;102204.84;;;1.39;83.90
71735;BME280;59577;52.122;5.406;2023-04-27T01:59:41;102201.41;;;1.39;84.29
71735;BME280;59577;52.122;5.406;2023-04-27T02:02:08;102203.81;;;1.40;84.22
71735;BME280;59577;52.122;5.406;2023-04-27T02:04:34;102197.94;;;1.43;84.00
71735;BME280;59577;52.122;5.406;2023-04-27T02:07:02;102209.44;;;1.44;83.93
71735;BME280;59577;52.122;5.406;2023-04-27T02:09:28;102210.78;;;1.46;83.71
71735;BME280;59577;52.122;5.406;2023-04-27T02:11:55;102204.34;;;1.42;83.23
71735;BME280;59577;52.122;5.406;2023-04-27T02:14:21;102208.59;;;1.43;83.58
71735;BME280;59577;52.122;5.406;2023-04-27T02:16:48;102213.19;;;1.48;83.58
71735;BME280;59577;52.122;5.406;2023-04-27T02:19:14;102211.84;;;1.45;83.44
71735;BME280;59577;52.122;5.406;2023-04-27T02:21:41;102209.94;;;1.41;83.68
71735;BME280;59577;52.122;5.406;2023-04-27T02:24:08;102205.34;;;1.36;83.19
71735;BME280;59577;52.122;5.406;2023-04-27T02:26:44;102204.84;;;1.39;83.18
71735;BME280;59577;52.122;5.406;2023-04-27T02:29:11;102202.44;;;1.38;83.09
71735;BME280;59577;52.122;5.406;2023-04-27T02:31:38;102205.84;;;1.33;83.13
71735;BME280;59577;52.122;5.406;2023-04-27T02:34:05;102207.97;;;1.31;83.30
71735;BME280;59577;52.122;5.406;2023-04-27T02:36:32;102204.78;;;1.29;83.22
71735;BME280;59577;52.122;5.406;2023-04-27T02:38:58;102201.03;;;1.25;83.69
71735;BME280;59577;52.122;5.406;2023-04-27T02:41:24;102198.34;;;1.25;83.38
71735;BME280;59577;52.122;5.406;2023-04-27T02:43:53;102189.22;;;1.21;83.67
71735;BME280;59577;52.122;5.406;2023-04-27T02:46:19;102194.53;;;1.16;83.38
71735;BME280;59577;52.122;5.406;2023-04-27T02:48:46;102184.38;;;1.12;83.26
71735;BME280;59577;52.122;5.406;2023-04-27T02:51:13;102192.34;;;1.07;83.84
71735;BME280;59577;52.122;5.406;2023-04-27T02:53:39;102182.72;;;1.06;84.02
71735;BME280;59577;52.122;5.406;2023-04-27T02:56:06;102188.31;;;1.05;83.90
71735;BME280;59577;52.122;5.406;2023-04-27T02:58:32;102190.13;;;0.99;83.67
71735;BME280;59577;52.122;5.406;2023-04-27T03:00:59;102189.00;;;0.95;84.00
71735;BME280;59577;52.122;5.406;2023-04-27T03:03:26;102188.22;;;0.94;83.77
71735;BME280;59577;52.122;5.406;2023-04-27T03:05:53;102192.44;;;0.90;84.16
71735;BME280;59577;52.122;5.406;2023-04-27T03:08:20;102190.78;;;0.84;83.99
71735;BME280;59577;52.122;5.406;2023-04-27T03:10:46;102195.00;;;0.80;84.30
71735;BME280;59577;52.122;5.406;2023-04-27T03:13:13;102199.75;;;0.73;84.24
71735;BME280;59577;52.122;5.406;2023-04-27T03:15:40;102195.75;;;0.75;84.38
71735;BME280;59577;52.122;5.406;2023-04-27T03:18:08;102202.91;;;0.70;84.08
71735;BME280;59577;52.122;5.406;2023-04-27T03:20:34;102208.47;;;0.68;83.99
71735;BME280;59577;52.122;5.406;2023-04-27T03:23:01;102200.78;;;0.72;84.02
71735;BME280;59577;52.122;5.406;2023-04-27T03:25:28;102210.91;;;0.70;84.19
71735;BME280;59577;52.122;5.406;2023-04-27T03:27:54;102212.50;;;0.71;84.56
71735;BME280;59577;52.122;5.406;2023-04-27T03:30:21;102207.50;;;0.74;84.52
71735;BME280;59577;52.122;5.406;2023-04-27T03:32:48;102202.41;;;0.73;84.59
71735;BME280;59577;52.122;5.406;2023-04-27T03:35:14;102203.19;;;0.73;84.41
71735;BME280;59577;52.122;5.406;2023-04-27T03:37:41;102203.44;;;0.72;84.76
71735;BME280;59577;52.122;5.406;2023-04-27T03:40:17;102205.03;;;0.68;84.57
71735;BME280;59577;52.122;5.406;2023-04-27T03:42:43;102198.31;;;0.65;84.33
71735;BME280;59577;52.122;5.406;2023-04-27T03:45:12;102201.22;;;0.64;84.52
71735;BME280;59577;52.122;5.406;2023-04-27T03:47:47;102200.94;;;0.60;84.54
71735;BME280;59577;52.122;5.406;2023-04-27T03:50:18;102202.25;;;0.58;84.96
71735;BME280;59577;52.122;5.406;2023-04-27T03:52:48;102209.75;;;0.61;85.00
71735;BME280;59577;52.122;5.406;2023-04-27T03:55:14;102206.50;;;0.59;84.69
71735;BME280;59577;52.122;5.406;2023-04-27T03:57:41;102205.16;;;0.56;85.06
71735;BME280;59577;52.122;5.406;2023-04-27T04:00:08;102212.91;;;0.58;85.00
71735;BME280;59577;52.122;5.406;2023-04-27T04:02:37;102205.47;;;0.60;85.34
71735;BME280;59577;52.122;5.406;2023-04-27T04:05:04;102210.44;;;0.51;84.67
71735;BME280;59577;52.122;5.406;2023-04-27T04:07:31;102197.28;;;0.44;84.84
71735;BME280;59577;52.122;5.406;2023-04-27T04:09:58;102206.91;;;0.45;85.27
71735;BME280;59577;52.122;5.406;2023-04-27T04:12:24;102210.91;;;0.48;85.00
71735;BME280;59577;52.122;5.406;2023-04-27T04:14:51;102208.75;;;0.45;84.97
71735;BME280;59577;52.122;5.406;2023-04-27T04:17:18;102205.84;;;0.46;85.16
71735;BME280;59577;52.122;5.406;2023-04-27T04:19:44;102208.00;;;0.49;85.00
71735;BME280;59577;52.122;5.406;2023-04-27T04:22:11;102208.00;;;0.49;85.01
71735;BME280;59577;52.122;5.406;2023-04-27T04:24:37;102215.19;;;0.49;85.08
71735;BME280;59577;52.122;5.406;2023-04-27T04:27:05;102216.72;;;0.45;85.00
71735;BME280;59577;52.122;5.406;2023-04-27T04:29:31;102217.56;;;0.45;85.17
71735;BME280;59577;52.122;5.406;2023-04-27T04:32:04;102220.53;;;0.49;85.46
71735;BME280;59577;52.122;5.406;2023-04-27T04:34:32;102226.16;;;0.52;85.46
71735;BME280;59577;52.122;5.406;2023-04-27T04:36:59;102234.94;;;0.53;85.09
71735;BME280;59577;52.122;5.406;2023-04-27T04:39:32;102226.72;;;0.54;84.96
71735;BME280;59577;52.122;5.406;2023-04-27T04:41:58;102234.47;;;0.56;84.83
71735;BME280;59577;52.122;5.406;2023-04-27T04:44:25;102231.56;;;0.58;85.02
71735;BME280;59577;52.122;5.406;2023-04-27T04:46:51;102244.63;;;0.59;84.67
71735;BME280;59577;52.122;5.406;2023-04-27T04:49:18;102240.16;;;0.65;84.97
71735;BME280;59577;52.122;5.406;2023-04-27T04:51:44;102238.34;;;0.70;84.69
71735;BME280;59577;52.122;5.406;2023-04-27T04:54:11;102241.63;;;0.78;84.81
71735;BME280;59577;52.122;5.406;2023-04-27T04:56:43;102243.53;;;0.82;84.44
71735;BME280;59577;52.122;5.406;2023-04-27T04:59:10;102243.34;;;0.89;84.21
71735;BME280;59577;52.122;5.406;2023-04-27T05:01:36;102243.66;;;0.92;84.25
71735;BME280;59577;52.122;5.406;2023-04-27T05:04:03;102240.53;;;1.01;83.72
71735;BME280;59577;52.122;5.406;2023-04-27T05:06:34;102247.75;;;1.05;84.05
71735;BME280;59577;52.122;5.406;2023-04-27T05:09:00;102240.59;;;1.06;83.51
71735;BME280;59577;52.122;5.406;2023-04-27T05:11:27;102233.44;;;1.11;84.19
71735;BME280;59577;52.122;5.406;2023-04-27T05:13:53;102234.31;;;1.22;83.83
71735;BME280;59577;52.122;5.406;2023-04-27T05:16:20;102233.38;;;1.34;84.08
71735;BME280;59577;52.122;5.406;2023-04-27T05:18:49;102233.44;;;1.44;83.79
71735;BME280;59577;52.122;5.406;2023-04-27T05:21:16;102239.31;;;1.78;84.15
71735;BME280;59577;52.122;5.406;2023-04-27T05:23:45;102225.31;;;2.97;82.20
71735;BME280;59577;52.122;5.406;2023-04-27T05:26:13;102226.03;;;4.71;77.04
71735;BME280;59577;52.122;5.406;2023-04-27T05:28:40;102229.44;;;6.57;72.80
71735;BME280;59577;52.122;5.406;2023-04-27T05:31:07;102227.16;;;8.38;68.63
71735;BME280;59577;52.122;5.406;2023-04-27T05:33:37;102222.72;;;10.00;64.84
71735;BME280;59577;52.122;5.406;2023-04-27T05:36:04;102224.13;;;11.16;60.44
71735;BME280;59577;52.122;5.406;2023-04-27T05:38:31;102241.06;;;12.08;57.44
71735;BME280;59577;52.122;5.406;2023-04-27T05:40:58;102241.88;;;13.01;54.41
71735;BME280;59577;52.122;5.406;2023-04-27T05:43:25;102238.72;;;13.90;51.73
71735;BME280;59577;52.122;5.406;2023-04-27T05:45:52;102232.69;;;14.46;49.96
71735;BME280;59577;52.122;5.406;2023-04-27T05:48:19;102236.31;;;14.01;49.41
71735;BME280;59577;52.122;5.406;2023-04-27T05:50:46;102234.53;;;14.71;48.64
71735;BME280;59577;52.122;5.406;2023-04-27T05:53:15;102233.09;;;15.61;46.77
71735;BME280;59577;52.122;5.406;2023-04-27T05:55:42;102237.91;;;16.51;44.69
71735;BME280;59577;52.122;5.406;2023-04-27T05:58:09;102235.00;;;16.99;44.34
71735;BME280;59577;52.122;5.406;2023-04-27T06:00:35;102226.09;;;17.72;42.39
71735;BME280;59577;52.122;5.406;2023-04-27T06:03:02;102232.53;;;18.33;41.03
71735;BME280;59577;52.122;5.406;2023-04-27T06:05:28;102225.41;;;18.58;40.24
71735;BME280;59577;52.122;5.406;2023-04-27T06:07:55;102234.06;;;18.94;39.02
71735;BME280;59577;52.122;5.406;2023-04-27T06:10:22;102232.69;;;19.11;38.72
71735;BME280;59577;52.122;5.406;2023-04-27T06:12:48;102234.72;;;19.59;37.82
71735;BME280;59577;52.122;5.406;2023-04-27T06:15:15;102231.59;;;19.61;37.16
71735;BME280;59577;52.122;5.406;2023-04-27T06:17:42;102229.09;;;18.73;37.87
71735;BME280;59577;52.122;5.406;2023-04-27T06:20:11;102229.06;;;19.00;37.02
71735;BME280;59577;52.122;5.406;2023-04-27T06:22:42;102227.59;;;18.76;36.06
71735;BME280;59577;52.122;5.406;2023-04-27T06:25:12;102223.59;;;18.70;36.24
71735;BME280;59577;52.122;5.406;2023-04-27T06:27:38;102224.47;;;19.11;35.90
71735;BME280;59577;52.122;5.406;2023-04-27T06:30:05;102230.31;;;19.51;35.93
71735;BME280;59577;52.122;5.406;2023-04-27T06:32:33;102234.84;;;20.33;35.93
71735;BME280;59577;52.122;5.406;2023-04-27T06:34:59;102227.66;;;20.91;34.20
71735;BME280;59577;52.122;5.406;2023-04-27T06:37:26;102228.59;;;20.43;33.06
71735;BME280;59577;52.122;5.406;2023-04-27T06:39:52;102234.97;;;19.91;33.82
71735;BME280;59577;52.122;5.406;2023-04-27T06:42:19;102232.53;;;20.38;34.61
71735;BME280;59577;52.122;5.406;2023-04-27T06:44:45;102232.53;;;18.06;36.00
71735;BME280;59577;52.122;5.406;2023-04-27T06:47:12;102242.09;;;15.94;39.35
71735;BME280;59577;52.122;5.406;2023-04-27T06:49:39;102234.16;;;14.32;41.32
71735;BME280;59577;52.122;5.406;2023-04-27T06:52:08;102233.69;;;13.56;43.08
71735;BME280;59577;52.122;5.406;2023-04-27T06:54:34;102247.47;;;12.84;44.63
71735;BME280;59577;52.122;5.406;2023-04-27T06:57:00;102237.59;;;12.58;46.40
71735;BME280;59577;52.122;5.406;2023-04-27T06:59:27;102238.53;;;12.83;47.38
71735;BME280;59577;52.122;5.406;2023-04-27T07:01:54;102225.47;;;12.76;46.72
71735;BME280;59577;52.122;5.406;2023-04-27T07:04:20;102234.19;;;12.40;47.73
71735;BME280;59577;52.122;5.406;2023-04-27T07:06:47;102239.56;;;12.49;49.09
71735;BME280;59577;52.122;5.406;2023-04-27T07:09:14;102233.34;;;12.90;47.79
71735;BME280;59577;52.122;5.406;2023-04-27T07:11:53;102235.41;;;12.51;47.64
71735;BME280;59577;52.122;5.406;2023-04-27T07:14:19;102240.38;;;11.81;48.97
71735;BME280;59577;52.122;5.406;2023-04-27T07:16:46;102247.09;;;11.83;49.10
71735;BME280;59577;52.122;5.406;2023-04-27T07:19:16;102248.81;;;11.41;50.71
71735;BME280;59577;52.122;5.406;2023-04-27T07:21:42;102253.66;;;11.74;52.42
71735;BME280;59577;52.122;5.406;2023-04-27T07:24:09;102248.31;;;12.96;51.12
71735;BME280;59577;52.122;5.406;2023-04-27T07:26:35;102244.66;;;14.70;45.50
71735;BME280;59577;52.122;5.406;2023-04-27T07:29:03;102242.44;;;16.08;41.62
71735;BME280;59577;52.122;5.406;2023-04-27T07:31:48;102238.81;;;16.40;39.90
71735;BME280;59577;52.122;5.406;2023-04-27T07:34:17;102228.91;;;17.52;38.23
71735;BME280;59577;52.122;5.406;2023-04-27T07:36:44;102227.06;;;17.83;37.95
71735;BME280;59577;52.122;5.406;2023-04-27T07:39:19;102226.38;;;17.86;36.76
71735;BME280;59577;52.122;5.406;2023-04-27T07:41:55;102224.72;;;18.99;35.93
71735;BME280;59577;52.122;5.406;2023-04-27T07:44:21;102225.22;;;18.44;33.57
71735;BME280;59577;52.122;5.406;2023-04-27T07:46:51;102234.88;;;17.81;34.74
71735;BME280;59577;52.122;5.406;2023-04-27T07:49:19;102220.59;;;17.45;34.94
71735;BME280;59577;52.122;5.406;2023-04-27T07:51:46;102227.28;;;17.05;35.85
71735;BME280;59577;52.122;5.406;2023-04-27T07:54:13;102229.69;;;17.06;34.99
71735;BME280;59577;52.122;5.406;2023-04-27T07:56:41;102239.66;;;16.99;35.15
71735;BME280;59577;52.122;5.406;2023-04-27T07:59:08;102237.28;;;17.17;34.82
71735;BME280;59577;52.122;5.406;2023-04-27T08:01:34;102233.84;;;16.81;35.38
71735;BME280;59577;52.122;5.406;2023-04-27T08:04:01;102230.53;;;17.34;35.51
71735;BME280;59577;52.122;5.406;2023-04-27T08:06:28;102235.13;;;16.87;34.57
71735;BME280;59577;52.122;5.406;2023-04-27T08:08:55;102231.53;;;16.44;36.01
71735;BME280;59577;52.122;5.406;2023-04-27T08:11:26;102231.38;;;16.56;35.79
71735;BME280;59577;52.122;5.406;2023-04-27T08:14:06;102240.94;;;16.46;36.87
71735;BME280;59577;52.122;5.406;2023-04-27T08:16:42;102234.50;;;16.03;36.57
71735;BME280;59577;52.122;5.406;2023-04-27T08:19:09;102234.53;;;16.23;37.23
71735;BME280;59577;52.122;5.406;2023-04-27T08:21:37;102227.13;;;16.78;37.79
71735;BME280;59577;52.122;5.406;2023-04-27T08:24:04;102231.19;;;16.29;35.71
71735;BME280;59577;52.122;5.406;2023-04-27T08:26:34;102237.44;;;15.78;37.30
71735;BME280;59577;52.122;5.406;2023-04-27T08:29:08;102235.16;;;16.16;36.73
71735;BME280;59577;52.122;5.406;2023-04-27T08:31:51;102230.75;;;16.27;36.14
71735;BME280;59577;52.122;5.406;2023-04-27T08:34:21;102230.63;;;15.88;35.29
71735;BME280;59577;52.122;5.406;2023-04-27T08:36:48;102239.66;;;15.45;35.89
71735;BME280;59577;52.122;5.406;2023-04-27T08:39:14;102228.97;;;15.68;36.19
71735;BME280;59577;52.122;5.406;2023-04-27T08:41:41;102219.91;;;15.95;37.18
71735;BME280;59577;52.122;5.406;2023-04-27T08:44:09;102216.09;;;16.00;37.09
71735;BME280;59577;52.122;5.406;2023-04-27T08:46:36;102218.69;;;16.28;35.68
71735;BME280;59577;52.122;5.406;2023-04-27T08:49:03;102227.38;;;15.98;35.29
71735;BME280;59577;52.122;5.406;2023-04-27T08:51:31;102234.78;;;15.82;35.62
71735;BME280;59577;52.122;5.406;2023-04-27T08:53:57;102224.63;;;15.67;35.44
71735;BME280;59577;52.122;5.406;2023-04-27T08:56:26;102223.78;;;15.63;34.88
71735;BME280;59577;52.122;5.406;2023-04-27T08:58:54;102227.81;;;15.85;35.20
71735;BME280;59577;52.122;5.406;2023-04-27T09:01:22;102225.28;;;15.92;35.77
71735;BME280;59577;52.122;5.406;2023-04-27T09:03:59;102226.03;;;16.08;35.57
71735;BME280;59577;52.122;5.406;2023-04-27T09:06:31;102226.88;;;16.28;38.72
71735;BME280;59577;52.122;5.406;2023-04-27T09:08:59;102223.00;;;16.84;34.80
71735;BME280;59577;52.122;5.406;2023-04-27T09:11:31;102222.63;;;16.31;34.06
71735;BME280;59577;52.122;5.406;2023-04-27T09:14:00;102229.44;;;16.21;33.41
71735;BME280;59577;52.122;5.406;2023-04-27T09:16:28;102223.50;;;16.00;33.41
71735;BME280;59577;52.122;5.406;2023-04-27T09:18:58;102223.59;;;16.39;34.26
71735;BME280;59577;52.122;5.406;2023-04-27T09:21:29;102216.91;;;16.55;34.88
71735;BME280;59577;52.122;5.406;2023-04-27T09:23:56;102212.06;;;16.84;33.29
71735;BME280;59577;52.122;5.406;2023-04-27T09:26:25;102220.34;;;17.31;33.83
71735;BME280;59577;52.122;5.406;2023-04-27T09:28:56;102211.84;;;17.16;33.55
71735;BME280;59577;52.122;5.406;2023-04-27T09:31:30;102211.28;;;17.50;34.00
71735;BME280;59577;52.122;5.406;2023-04-27T09:33:58;102198.44;;;17.54;34.24
71735;BME280;59577;52.122;5.406;2023-04-27T09:36:25;102197.88;;;17.21;33.04
71735;BME280;59577;52.122;5.406;2023-04-27T09:38:52;102205.94;;;16.91;33.54
71735;BME280;59577;52.122;5.406;2023-04-27T09:41:19;102206.03;;;17.18;33.57
71735;BME280;59577;52.122;5.406;2023-04-27T09:43:46;102204.41;;;17.13;33.97
71735;BME280;59577;52.122;5.406;2023-04-27T09:46:13;102202.38;;;17.10;33.13
71735;BME280;59577;52.122;5.406;2023-04-27T09:48:40;102198.13;;;17.13;33.86
71735;BME280;59577;52.122;5.406;2023-04-27T09:51:07;102204.03;;;16.76;33.75
71735;BME280;59577;52.122;5.406;2023-04-27T09:53:38;102205.94;;;16.16;33.43
71735;BME280;59577;52.122;5.406;2023-04-27T10:01:46;102183.00;;;17.19;33.89
71735;BME280;59577;52.122;5.406;2023-04-27T10:09:35;102190.09;;;17.46;33.29
71735;BME280;59577;52.122;5.406;2023-04-27T10:12:19;102189.66;;;16.98;32.58
71735;BME280;59577;52.122;5.406;2023-04-27T10:14:54;102200.53;;;16.75;32.71
71735;BME280;59577;52.122;5.406;2023-04-27T10:17:28;102192.31;;;16.55;33.13
71735;BME280;59577;52.122;5.406;2023-04-27T10:19:59;102195.41;;;16.93;32.91
71735;BME280;59577;52.122;5.406;2023-04-27T10:22:39;102195.13;;;16.98;32.86
71735;BME280;59577;52.122;5.406;2023-04-27T10:25:16;102205.13;;;17.10;32.72
71735;BME280;59577;52.122;5.406;2023-04-27T10:27:50;102202.91;;;16.96;32.75
71735;BME280;59577;52.122;5.406;2023-04-27T10:30:19;102196.13;;;16.90;31.91
71735;BME280;59577;52.122;5.406;2023-04-27T10:32:56;102196.56;;;16.72;32.13
71735;BME280;59577;52.122;5.406;2023-04-27T10:35:43;102194.25;;;16.74;32.49
71735;BME280;59577;52.122;5.406;2023-04-27T10:38:15;102193.53;;;16.58;32.98
71735;BME280;59577;52.122;5.406;2023-04-27T10:40:44;102185.91;;;16.67;32.90
71735;BME280;59577;52.122;5.406;2023-04-27T10:43:13;102182.56;;;17.17;34.17
71735;BME280;59577;52.122;5.406;2023-04-27T10:45:41;102193.41;;;17.33;33.80
71735;BME280;59577;52.122;5.406;2023-04-27T10:48:11;102194.00;;;17.22;32.35
71735;BME280;59577;52.122;5.406;2023-04-27T10:50:38;102192.00;;;16.41;32.68
71735;BME280;59577;52.122;5.406;2023-04-27T10:53:19;102191.81;;;16.50;32.41
71735;BME280;59577;52.122;5.406;2023-04-27T10:55:46;102179.94;;;16.42;33.76
71735;BME280;59577;52.122;5.406;2023-04-27T10:58:12;102188.06;;;16.78;33.57
71735;BME280;59577;52.122;5.406;2023-04-27T11:00:40;102174.63;;;16.88;33.02
71735;BME280;59577;52.122;5.406;2023-04-27T11:03:21;102178.22;;;16.92;32.80
71735;BME280;59577;52.122;5.406;2023-04-27T11:05:59;102170.22;;;16.64;32.01
71735;BME280;59577;52.122;5.406;2023-04-27T11:08:26;102176.41;;;16.81;32.11
71735;BME280;59577;52.122;5.406;2023-04-27T11:10:56;102175.06;;;16.90;32.56
71735;BME280;59577;52.122;5.406;2023-04-27T11:13:26;102164.56;;;17.16;32.73
71735;BME280;59577;52.122;5.406;2023-04-27T11:15:55;102160.00;;;17.00;31.85
71735;BME280;59577;52.122;5.406;2023-04-27T11:18:25;102149.75;;;16.54;31.96
71735;BME280;59577;52.122;5.406;2023-04-27T11:20:53;102148.38;;;16.45;32.13
71735;BME280;59577;52.122;5.406;2023-04-27T11:23:29;102149.63;;;16.12;32.70
71735;BME280;59577;52.122;5.406;2023-04-27T11:25:57;102142.59;;;16.50;32.63
71735;BME280;59577;52.122;5.406;2023-04-27T11:28:24;102141.34;;;16.44;32.07
71735;BME280;59577;52.122;5.406;2023-04-27T11:30:55;102142.06;;;16.05;34.45
71735;BME280;59577;52.122;5.406;2023-04-27T11:33:22;102140.72;;;16.15;33.93
71735;BME280;59577;52.122;5.406;2023-04-27T11:35:49;102138.72;;;16.31;33.03
71735;BME280;59577;52.122;5.406;2023-04-27T11:38:16;102141.03;;;16.29;33.90
71735;BME280;59577;52.122;5.406;2023-04-27T11:41:03;102131.97;;;16.25;33.77
71735;BME280;59577;52.122;5.406;2023-04-27T11:43:30;102128.81;;;16.23;33.48
71735;BME280;59577;52.122;5.406;2023-04-27T11:46:03;102130.66;;;16.19;33.81
71735;BME280;59577;52.122;5.406;2023-04-27T11:48:35;102121.09;;;15.58;33.21
71735;BME280;59577;52.122;5.406;2023-04-27T11:51:03;102132.66;;;15.19;33.21
71735;BME280;59577;52.122;5.406;2023-04-27T11:53:31;102133.91;;;14.78;33.75
71735;BME280;59577;52.122;5.406;2023-04-27T11:56:00;102127.63;;;14.61;34.52
71735;BME280;59577;52.122;5.406;2023-04-27T11:58:28;102127.44;;;14.98;34.09
71735;BME280;59577;52.122;5.406;2023-04-27T12:00:56;102121.81;;;15.39;35.17
71735;BME280;59577;52.122;5.406;2023-04-27T12:03:23;102120.34;;;15.93;33.84
71735;BME280;59577;52.122;5.406;2023-04-27T12:05:50;102117.44;;;16.21;35.20
71735;BME280;59577;52.122;5.406;2023-04-27T12:08:18;102112.84;;;16.25;34.47
71735;BME280;59577;52.122;5.406;2023-04-27T12:10:45;102121.38;;;16.43;33.84
71735;BME280;59577;52.122;5.406;2023-04-27T12:13:12;102118.59;;;16.20;32.61
71735;BME280;59577;52.122;5.406;2023-04-27T12:15:40;102125.88;;;15.96;32.01
71735;BME280;59577;52.122;5.406;2023-04-27T12:18:08;102125.50;;;15.78;33.71
71735;BME280;59577;52.122;5.406;2023-04-27T12:20:35;102111.28;;;16.44;36.91
71735;BME280;59577;52.122;5.406;2023-04-27T12:23:02;102108.19;;;16.88;33.89
71735;BME280;59577;52.122;5.406;2023-04-27T12:25:28;102108.66;;;16.31;32.68
71735;BME280;59577;52.122;5.406;2023-04-27T12:27:55;102108.00;;;15.99;32.72
71735;BME280;59577;52.122;5.406;2023-04-27T12:30:22;102105.31;;;15.67;32.52
71735;BME280;59577;52.122;5.406;2023-04-27T12:32:49;102102.56;;;15.83;34.23
71735;BME280;59577;52.122;5.406;2023-04-27T12:35:16;102096.50;;;15.74;34.49
71735;BME280;59577;52.122;5.406;2023-04-27T12:37:43;102094.06;;;16.43;37.38
71735;BME280;59577;52.122;5.406;2023-04-27T12:40:10;102086.44;;;16.95;37.96
71735;BME280;59577;52.122;5.406;2023-04-27T12:42:36;102094.81;;;17.06;33.29
71735;BME280;59577;52.122;5.406;2023-04-27T12:45:03;102080.91;;;16.91;31.89
71735;BME280;59577;52.122;5.406;2023-04-27T12:47:30;102078.84;;;16.85;32.16
71735;BME280;59577;52.122;5.406;2023-04-27T12:50:19;102086.69;;;16.86;32.00
71735;BME280;59577;52.122;5.406;2023-04-27T12:52:46;102079.47;;;16.98;32.18
71735;BME280;59577;52.122;5.406;2023-04-27T12:55:13;102081.03;;;17.22;32.82
71735;BME280;59577;52.122;5.406;2023-04-27T12:57:57;102083.16;;;16.86;32.50
71735;BME280;59577;52.122;5.406;2023-04-27T13:00:24;102085.91;;;16.86;35.45
71735;BME280;59577;52.122;5.406;2023-04-27T13:02:51;102076.16;;;16.88;32.42
71735;BME280;59577;52.122;5.406;2023-04-27T13:05:21;102077.31;;;16.68;31.86
71735;BME280;59577;52.122;5.406;2023-04-27T13:07:48;102064.72;;;16.60;33.51
71735;BME280;59577;52.122;5.406;2023-04-27T13:10:24;102070.28;;;16.44;32.74
71735;BME280;59577;52.122;5.406;2023-04-27T13:12:51;102064.59;;;16.33;33.86